SAA401 FAOR-FAPE
Flight info
| Callsign | SAA401 |
|---|---|
| Flight time | 1h 16m |
| Altitude | 34000 |
| Route | OVALA UZ18 NEVEN UQ8 ALKAT DCT PEV |
| Aircraft | A320/M-SDE3FGHIRWY/LB1 |
Departure
| Time | 2026-04-16 07:23 |
|---|---|
| Airport | O.R. Tambo International Airport (FAOR) |
Arrival
| Time | 2026-04-16 08:39 |
|---|---|
| Airport | Chief Dawid Stuurman International Airport (FAPE) |
| Time | Latitude | Longitude | Altitude | Speed | Heading |
|---|---|---|---|---|---|
| 2026-04-16 06:38 | -26.13658 | 28.23255 | 5547 ft | 0 kts | 276° |
| 2026-04-16 07:11 | -26.13659 | 28.23269 | 5547 ft | 3 kts | 276° |
| 2026-04-16 07:11 | -26.13661 | 28.23291 | 5547 ft | 3 kts | 276° |
| 2026-04-16 07:11 | -26.13663 | 28.23313 | 5547 ft | 3 kts | 282° |
| 2026-04-16 07:11 | -26.13668 | 28.23331 | 5551 ft | 3 kts | 309° |
| 2026-04-16 07:12 | -26.13683 | 28.23342 | 5549 ft | 3 kts | 2° |
| 2026-04-16 07:12 | -26.13700 | 28.23341 | 5548 ft | 3 kts | 6° |
| 2026-04-16 07:12 | -26.13706 | 28.23340 | 5549 ft | 0 kts | 6° |
| 2026-04-16 07:16 | -26.13704 | 28.23340 | 5549 ft | 2 kts | 6° |
| 2026-04-16 07:16 | -26.13665 | 28.23345 | 5549 ft | 7 kts | 6° |
| 2026-04-16 07:16 | -26.13613 | 28.23351 | 5547 ft | 11 kts | 6° |
| 2026-04-16 07:17 | -26.13513 | 28.23363 | 5551 ft | 15 kts | 5° |
| 2026-04-16 07:17 | -26.13432 | 28.23390 | 5550 ft | 11 kts | 52° |
| 2026-04-16 07:17 | -26.13429 | 28.23478 | 5547 ft | 12 kts | 96° |
| 2026-04-16 07:17 | -26.13440 | 28.23566 | 5550 ft | 9 kts | 105° |
| 2026-04-16 07:18 | -26.13491 | 28.23591 | 5550 ft | 8 kts | 189° |
| 2026-04-16 07:18 | -26.13563 | 28.23567 | 5551 ft | 14 kts | 195° |
| 2026-04-16 07:18 | -26.13670 | 28.23534 | 5553 ft | 16 kts | 195° |
| 2026-04-16 07:18 | -26.13772 | 28.23502 | 5558 ft | 14 kts | 196° |
| 2026-04-16 07:19 | -26.13872 | 28.23470 | 5559 ft | 17 kts | 195° |
| 2026-04-16 07:19 | -26.14002 | 28.23430 | 5560 ft | 19 kts | 194° |
| 2026-04-16 07:19 | -26.14125 | 28.23393 | 5564 ft | 18 kts | 195° |
| 2026-04-16 07:19 | -26.14249 | 28.23354 | 5564 ft | 19 kts | 195° |
| 2026-04-16 07:20 | -26.14375 | 28.23315 | 5565 ft | 19 kts | 195° |
| 2026-04-16 07:20 | -26.14494 | 28.23279 | 5564 ft | 16 kts | 194° |
| 2026-04-16 07:20 | -26.14569 | 28.23288 | 5565 ft | 6 kts | 163° |
| 2026-04-16 07:20 | -26.14583 | 28.23296 | 5565 ft | 0 kts | 148° |
| 2026-04-16 07:21 | -26.14593 | 28.23310 | 5565 ft | 9 kts | 123° |
| 2026-04-16 07:21 | -26.14619 | 28.23395 | 5565 ft | 9 kts | 105° |
| 2026-04-16 07:22 | -26.14619 | 28.23440 | 5567 ft | 5 kts | 52° |
| 2026-04-16 07:22 | -26.14579 | 28.23455 | 5566 ft | 8 kts | 14° |
| 2026-04-16 07:22 | -26.14406 | 28.23509 | 5565 ft | 57 kts | 15° |
| 2026-04-16 07:22 | -26.13809 | 28.23694 | 5561 ft | 119 kts | 15° |
| 2026-04-16 07:23 | -26.12840 | 28.23995 | 5547 ft | 168 kts | 15° |
| 2026-04-16 07:23 | -26.11639 | 28.24357 | 6006 ft | 180 kts | 16° |
| 2026-04-16 07:23 | -26.10432 | 28.24726 | 6747 ft | 180 kts | 15° |
| 2026-04-16 07:23 | -26.09172 | 28.25115 | 6978 ft | 199 kts | 14° |
| 2026-04-16 07:24 | -26.07764 | 28.25552 | 7131 ft | 222 kts | 15° |
| 2026-04-16 07:24 | -26.06219 | 28.26039 | 7512 ft | 236 kts | 15° |
| 2026-04-16 07:24 | -26.04714 | 28.26801 | 8155 ft | 243 kts | 39° |
| 2026-04-16 07:24 | -26.03705 | 28.28323 | 8831 ft | 251 kts | 69° |
| 2026-04-16 07:25 | -26.03501 | 28.30259 | 9526 ft | 259 kts | 98° |
| 2026-04-16 07:25 | -26.04181 | 28.32113 | 10217 ft | 264 kts | 128° |
| 2026-04-16 07:25 | -26.05567 | 28.33485 | 10671 ft | 278 kts | 153° |
| 2026-04-16 07:25 | -26.07434 | 28.34293 | 10902 ft | 299 kts | 162° |
| 2026-04-16 07:26 | -26.08783 | 28.34801 | 11220 ft | 306 kts | 162° |
| 2026-04-16 07:26 | -26.10815 | 28.35561 | 11845 ft | 310 kts | 162° |
| 2026-04-16 07:26 | -26.12879 | 28.36302 | 12505 ft | 314 kts | 168° |
| 2026-04-16 07:26 | -26.15050 | 28.36444 | 13141 ft | 314 kts | 190° |
| 2026-04-16 07:27 | -26.17202 | 28.35981 | 13792 ft | 317 kts | 193° |
| 2026-04-16 07:27 | -26.19401 | 28.35468 | 14421 ft | 320 kts | 194° |
| 2026-04-16 07:27 | -26.21584 | 28.34954 | 14995 ft | 322 kts | 194° |
| 2026-04-16 07:27 | -26.23785 | 28.34436 | 15582 ft | 325 kts | 194° |
| 2026-04-16 07:28 | -26.26004 | 28.33914 | 16167 ft | 327 kts | 193° |
| 2026-04-16 07:28 | -26.28276 | 28.33378 | 16398 ft | 343 kts | 193° |
| 2026-04-16 07:28 | -26.30671 | 28.32812 | 16525 ft | 360 kts | 193° |
| 2026-04-16 07:28 | -26.33177 | 28.32221 | 16649 ft | 376 kts | 193° |
| 2026-04-16 07:29 | -26.35778 | 28.31608 | 16880 ft | 387 kts | 193° |
| 2026-04-16 07:29 | -26.38433 | 28.30985 | 17315 ft | 392 kts | 193° |
| 2026-04-16 07:29 | -26.41112 | 28.30356 | 17819 ft | 395 kts | 193° |
| 2026-04-16 07:29 | -26.43812 | 28.29723 | 18334 ft | 398 kts | 193° |
| 2026-04-16 07:30 | -26.46529 | 28.29088 | 18812 ft | 400 kts | 193° |
| 2026-04-16 07:30 | -26.49263 | 28.28446 | 19267 ft | 403 kts | 193° |
| 2026-04-16 07:30 | -26.52010 | 28.27799 | 19707 ft | 405 kts | 194° |
| 2026-04-16 07:30 | -26.54775 | 28.27149 | 20180 ft | 407 kts | 194° |
| 2026-04-16 07:31 | -26.57555 | 28.26495 | 20648 ft | 409 kts | 194° |
| 2026-04-16 07:31 | -26.60350 | 28.25833 | 21096 ft | 412 kts | 194° |
| 2026-04-16 07:31 | -26.63161 | 28.25167 | 21536 ft | 414 kts | 194° |
| 2026-04-16 07:31 | -26.65985 | 28.24498 | 21965 ft | 416 kts | 194° |
| 2026-04-16 07:32 | -26.68826 | 28.23826 | 22382 ft | 418 kts | 194° |
| 2026-04-16 07:32 | -26.71681 | 28.23152 | 22779 ft | 421 kts | 194° |
| 2026-04-16 07:32 | -26.74552 | 28.22473 | 23199 ft | 423 kts | 194° |
| 2026-04-16 07:32 | -26.77441 | 28.21791 | 23606 ft | 425 kts | 195° |
| 2026-04-16 07:33 | -26.80343 | 28.21107 | 23975 ft | 427 kts | 195° |
| 2026-04-16 07:33 | -26.83260 | 28.20417 | 24311 ft | 430 kts | 195° |
| 2026-04-16 07:33 | -26.86232 | 28.19713 | 24652 ft | 432 kts | 195° |
| 2026-04-16 07:33 | -26.89179 | 28.19016 | 24995 ft | 434 kts | 195° |
| 2026-04-16 07:34 | -26.92178 | 28.18306 | 25328 ft | 435 kts | 195° |
| 2026-04-16 07:34 | -26.95108 | 28.17607 | 25651 ft | 437 kts | 195° |
| 2026-04-16 07:34 | -26.98128 | 28.16886 | 25986 ft | 439 kts | 196° |
| 2026-04-16 07:34 | -27.01124 | 28.16172 | 26316 ft | 441 kts | 196° |
| 2026-04-16 07:35 | -27.04131 | 28.15459 | 26656 ft | 443 kts | 196° |
| 2026-04-16 07:35 | -27.07153 | 28.14741 | 27001 ft | 445 kts | 196° |
| 2026-04-16 07:35 | -27.10189 | 28.14019 | 27348 ft | 447 kts | 196° |
| 2026-04-16 07:35 | -27.13239 | 28.13294 | 27665 ft | 450 kts | 196° |
| 2026-04-16 07:36 | -27.16305 | 28.12564 | 27992 ft | 452 kts | 197° |
| 2026-04-16 07:36 | -27.19388 | 28.11831 | 28321 ft | 453 kts | 197° |
| 2026-04-16 07:36 | -27.22478 | 28.11096 | 28732 ft | 453 kts | 197° |
| 2026-04-16 07:36 | -27.25554 | 28.10364 | 29206 ft | 451 kts | 197° |
| 2026-04-16 07:37 | -27.28619 | 28.09633 | 29681 ft | 450 kts | 197° |
| 2026-04-16 07:37 | -27.31680 | 28.08903 | 30155 ft | 449 kts | 197° |
| 2026-04-16 07:37 | -27.34731 | 28.08172 | 30579 ft | 448 kts | 197° |
| 2026-04-16 07:37 | -27.37772 | 28.07444 | 30994 ft | 446 kts | 198° |
| 2026-04-16 07:38 | -27.40801 | 28.06719 | 31410 ft | 444 kts | 198° |
| 2026-04-16 07:38 | -27.43821 | 28.05996 | 31838 ft | 443 kts | 198° |
| 2026-04-16 07:38 | -27.46826 | 28.05278 | 32275 ft | 441 kts | 198° |
| 2026-04-16 07:38 | -27.49770 | 28.04415 | 32705 ft | 434 kts | 204° |
| 2026-04-16 07:39 | -27.52680 | 28.03383 | 33150 ft | 432 kts | 204° |
| 2026-04-16 07:39 | -27.55505 | 28.02384 | 33591 ft | 430 kts | 204° |
| 2026-04-16 07:39 | -27.58356 | 28.01379 | 34035 ft | 428 kts | 204° |
| 2026-04-16 07:39 | -27.61200 | 28.00378 | 34218 ft | 428 kts | 204° |
| 2026-04-16 07:40 | -27.64063 | 27.99366 | 34257 ft | 434 kts | 204° |
| 2026-04-16 07:40 | -27.69911 | 27.97291 | 34249 ft | 439 kts | 204° |
| 2026-04-16 07:41 | -27.75716 | 27.95238 | 34247 ft | 440 kts | 204° |
| 2026-04-16 07:41 | -27.81605 | 27.93159 | 34247 ft | 441 kts | 204° |
| 2026-04-16 07:42 | -27.87457 | 27.91086 | 34248 ft | 441 kts | 204° |
| 2026-04-16 07:42 | -27.93312 | 27.89008 | 34252 ft | 441 kts | 204° |
| 2026-04-16 07:43 | -27.99171 | 27.86932 | 34260 ft | 442 kts | 204° |
| 2026-04-16 07:43 | -28.05018 | 27.84809 | 34258 ft | 441 kts | 204° |
| 2026-04-16 07:44 | -28.10852 | 27.82638 | 34251 ft | 441 kts | 205° |
| 2026-04-16 07:44 | -28.16685 | 27.80473 | 34250 ft | 441 kts | 204° |
| 2026-04-16 07:45 | -28.22527 | 27.78319 | 34248 ft | 442 kts | 204° |
| 2026-04-16 07:45 | -28.28370 | 27.76163 | 34244 ft | 442 kts | 204° |
| 2026-04-16 07:46 | -28.34213 | 27.74001 | 34244 ft | 442 kts | 204° |
| 2026-04-16 07:46 | -28.40050 | 27.71834 | 34239 ft | 441 kts | 204° |
| 2026-04-16 07:47 | -28.45889 | 27.69663 | 34238 ft | 441 kts | 204° |
| 2026-04-16 07:47 | -28.51728 | 27.67494 | 34253 ft | 441 kts | 205° |
| 2026-04-16 07:48 | -28.57570 | 27.65328 | 34239 ft | 442 kts | 205° |
| 2026-04-16 07:48 | -28.63458 | 27.63139 | 34233 ft | 442 kts | 205° |
| 2026-04-16 07:49 | -28.69264 | 27.60971 | 34228 ft | 442 kts | 205° |
| 2026-04-16 07:49 | -28.75156 | 27.58768 | 34234 ft | 443 kts | 205° |
| 2026-04-16 07:50 | -28.80969 | 27.56597 | 34243 ft | 443 kts | 205° |
| 2026-04-16 07:50 | -28.86830 | 27.54411 | 34235 ft | 443 kts | 205° |
| 2026-04-16 07:51 | -28.92732 | 27.52206 | 34232 ft | 443 kts | 205° |
| 2026-04-16 07:51 | -28.98555 | 27.50020 | 34221 ft | 444 kts | 205° |
| 2026-04-16 07:52 | -29.04417 | 27.47818 | 34221 ft | 444 kts | 205° |
| 2026-04-16 07:52 | -29.10283 | 27.45616 | 34254 ft | 444 kts | 205° |
| 2026-04-16 07:53 | -29.16151 | 27.43412 | 34244 ft | 444 kts | 205° |
| 2026-04-16 07:53 | -29.22016 | 27.41197 | 34233 ft | 444 kts | 205° |
| 2026-04-16 07:54 | -29.27884 | 27.38977 | 34223 ft | 444 kts | 205° |
| 2026-04-16 07:54 | -29.33757 | 27.36757 | 34223 ft | 444 kts | 205° |
| 2026-04-16 07:55 | -29.39631 | 27.34539 | 34236 ft | 445 kts | 205° |
| 2026-04-16 07:55 | -29.45505 | 27.32316 | 34224 ft | 445 kts | 205° |
| 2026-04-16 07:56 | -29.51383 | 27.30088 | 34218 ft | 445 kts | 205° |
| 2026-04-16 07:56 | -29.57258 | 27.27858 | 34213 ft | 445 kts | 205° |
| 2026-04-16 07:57 | -29.63141 | 27.25629 | 34212 ft | 445 kts | 205° |
| 2026-04-16 07:57 | -29.69024 | 27.23396 | 34224 ft | 445 kts | 205° |
| 2026-04-16 07:58 | -29.74950 | 27.21140 | 34217 ft | 446 kts | 205° |
| 2026-04-16 07:58 | -29.79842 | 27.19277 | 34209 ft | 446 kts | 205° |
| 2026-04-16 07:59 | -29.85728 | 27.17025 | 34215 ft | 446 kts | 206° |
| 2026-04-16 07:59 | -29.92609 | 27.14383 | 34231 ft | 446 kts | 206° |
| 2026-04-16 08:00 | -29.97511 | 27.12505 | 34209 ft | 447 kts | 206° |
| 2026-04-16 08:00 | -30.03421 | 27.10246 | 34203 ft | 448 kts | 206° |
| 2026-04-16 08:01 | -30.09337 | 27.07984 | 34197 ft | 448 kts | 206° |
| 2026-04-16 08:01 | -30.15255 | 27.05714 | 34196 ft | 448 kts | 206° |
| 2026-04-16 08:02 | -30.21166 | 27.03435 | 34210 ft | 448 kts | 206° |
| 2026-04-16 08:02 | -30.30042 | 27.00006 | 34196 ft | 449 kts | 206° |
| 2026-04-16 08:03 | -30.35966 | 26.97720 | 34183 ft | 449 kts | 206° |
| 2026-04-16 08:03 | -30.41889 | 26.95433 | 34179 ft | 449 kts | 206° |
| 2026-04-16 08:04 | -30.47816 | 26.93147 | 34205 ft | 449 kts | 206° |
| 2026-04-16 08:04 | -30.53744 | 26.90846 | 34186 ft | 449 kts | 206° |
| 2026-04-16 08:05 | -30.59676 | 26.88542 | 34181 ft | 450 kts | 206° |
| 2026-04-16 08:05 | -30.65616 | 26.86240 | 34184 ft | 450 kts | 206° |
| 2026-04-16 08:06 | -30.71555 | 26.83929 | 34184 ft | 450 kts | 206° |
| 2026-04-16 08:06 | -30.77488 | 26.81623 | 34199 ft | 450 kts | 206° |
| 2026-04-16 08:07 | -30.83421 | 26.79315 | 34182 ft | 450 kts | 206° |
| 2026-04-16 08:07 | -30.89352 | 26.77000 | 34171 ft | 450 kts | 206° |
| 2026-04-16 08:08 | -30.95287 | 26.74677 | 34165 ft | 450 kts | 206° |
| 2026-04-16 08:08 | -31.01262 | 26.72339 | 34169 ft | 451 kts | 206° |
| 2026-04-16 08:09 | -31.07210 | 26.70015 | 34167 ft | 451 kts | 206° |
| 2026-04-16 08:09 | -31.13154 | 26.67687 | 34162 ft | 451 kts | 206° |
| 2026-04-16 08:10 | -31.19055 | 26.65369 | 34160 ft | 450 kts | 206° |
| 2026-04-16 08:10 | -31.24993 | 26.63027 | 34162 ft | 450 kts | 206° |
| 2026-04-16 08:11 | -31.30971 | 26.60669 | 34177 ft | 450 kts | 206° |
| 2026-04-16 08:11 | -31.36917 | 26.58331 | 34164 ft | 451 kts | 206° |
| 2026-04-16 08:12 | -31.42870 | 26.55984 | 34168 ft | 452 kts | 206° |
| 2026-04-16 08:12 | -31.48824 | 26.53632 | 34144 ft | 451 kts | 206° |
| 2026-04-16 08:13 | -31.54772 | 26.51279 | 34130 ft | 451 kts | 206° |
| 2026-04-16 08:13 | -31.60723 | 26.48917 | 34142 ft | 451 kts | 206° |
| 2026-04-16 08:14 | -31.66673 | 26.46546 | 34119 ft | 452 kts | 206° |
| 2026-04-16 08:14 | -31.72629 | 26.44175 | 34114 ft | 452 kts | 206° |
| 2026-04-16 08:15 | -31.78585 | 26.41804 | 34103 ft | 452 kts | 206° |
| 2026-04-16 08:15 | -31.84539 | 26.39432 | 34122 ft | 452 kts | 206° |
| 2026-04-16 08:16 | -31.90491 | 26.37054 | 34100 ft | 452 kts | 206° |
| 2026-04-16 08:16 | -31.96444 | 26.34667 | 34091 ft | 452 kts | 206° |
| 2026-04-16 08:17 | -32.02398 | 26.32273 | 34089 ft | 452 kts | 206° |
| 2026-04-16 08:17 | -32.08353 | 26.29889 | 34080 ft | 452 kts | 206° |
| 2026-04-16 08:19 | -32.32189 | 26.20299 | 34028 ft | 453 kts | 206° |
| 2026-04-16 08:20 | -32.35170 | 26.19092 | 33758 ft | 453 kts | 206° |
| 2026-04-16 08:20 | -32.38151 | 26.17885 | 33496 ft | 453 kts | 206° |
| 2026-04-16 08:20 | -32.41138 | 26.16674 | 33248 ft | 454 kts | 206° |
| 2026-04-16 08:20 | -32.44136 | 26.15457 | 32426 ft | 458 kts | 206° |
| 2026-04-16 08:21 | -32.47168 | 26.14227 | 31562 ft | 463 kts | 206° |
| 2026-04-16 08:21 | -32.50228 | 26.12989 | 30710 ft | 467 kts | 205° |
| 2026-04-16 08:21 | -32.53310 | 26.11745 | 29995 ft | 467 kts | 205° |
| 2026-04-16 08:21 | -32.56368 | 26.10517 | 29412 ft | 461 kts | 205° |
| 2026-04-16 08:22 | -32.59369 | 26.09311 | 29078 ft | 450 kts | 205° |
| 2026-04-16 08:22 | -32.62322 | 26.08119 | 28445 ft | 447 kts | 205° |
| 2026-04-16 08:22 | -32.65254 | 26.06928 | 27867 ft | 444 kts | 205° |
| 2026-04-16 08:22 | -32.68164 | 26.05740 | 27238 ft | 441 kts | 205° |
| 2026-04-16 08:23 | -32.71054 | 26.04560 | 26644 ft | 438 kts | 205° |
| 2026-04-16 08:23 | -32.73922 | 26.03388 | 26049 ft | 435 kts | 204° |
| 2026-04-16 08:23 | -32.76773 | 26.02223 | 25460 ft | 432 kts | 204° |
| 2026-04-16 08:23 | -32.79611 | 26.01065 | 24869 ft | 430 kts | 204° |
| 2026-04-16 08:24 | -32.82429 | 25.99916 | 24299 ft | 427 kts | 204° |
| 2026-04-16 08:24 | -32.85232 | 25.98772 | 23819 ft | 423 kts | 204° |
| 2026-04-16 08:24 | -32.88006 | 25.97639 | 23539 ft | 421 kts | 204° |
| 2026-04-16 08:24 | -32.90776 | 25.96507 | 23197 ft | 420 kts | 204° |
| 2026-04-16 08:25 | -32.93535 | 25.95380 | 22879 ft | 418 kts | 204° |
| 2026-04-16 08:25 | -32.96281 | 25.94258 | 22576 ft | 416 kts | 204° |
| 2026-04-16 08:25 | -32.99012 | 25.93140 | 22260 ft | 414 kts | 204° |
| 2026-04-16 08:25 | -33.01731 | 25.92027 | 21954 ft | 412 kts | 204° |
| 2026-04-16 08:26 | -33.04438 | 25.90919 | 21640 ft | 411 kts | 204° |
| 2026-04-16 08:26 | -33.07138 | 25.89816 | 21330 ft | 409 kts | 204° |
| 2026-04-16 08:26 | -33.09824 | 25.88717 | 21017 ft | 407 kts | 204° |
| 2026-04-16 08:26 | -33.12497 | 25.87621 | 20715 ft | 406 kts | 204° |
| 2026-04-16 08:27 | -33.15160 | 25.86524 | 20409 ft | 404 kts | 204° |
| 2026-04-16 08:27 | -33.17810 | 25.85429 | 20110 ft | 403 kts | 204° |
| 2026-04-16 08:27 | -33.20485 | 25.84418 | 19640 ft | 404 kts | 201° |
| 2026-04-16 08:27 | -33.23201 | 25.83537 | 19089 ft | 404 kts | 199° |
| 2026-04-16 08:28 | -33.25969 | 25.82932 | 18571 ft | 408 kts | 186° |
| 2026-04-16 08:28 | -33.28796 | 25.83325 | 17992 ft | 414 kts | 166° |
| 2026-04-16 08:28 | -33.31500 | 25.84501 | 17395 ft | 413 kts | 161° |
| 2026-04-16 08:28 | -33.34164 | 25.85763 | 16807 ft | 411 kts | 160° |
| 2026-04-16 08:29 | -33.36813 | 25.87023 | 16227 ft | 408 kts | 160° |
| 2026-04-16 08:29 | -33.39444 | 25.88273 | 15662 ft | 405 kts | 160° |
| 2026-04-16 08:29 | -33.42057 | 25.89513 | 15119 ft | 403 kts | 160° |
| 2026-04-16 08:29 | -33.44658 | 25.90741 | 14574 ft | 400 kts | 160° |
| 2026-04-16 08:30 | -33.47243 | 25.91957 | 14036 ft | 398 kts | 160° |
| 2026-04-16 08:30 | -33.49813 | 25.93161 | 13457 ft | 393 kts | 160° |
| 2026-04-16 08:30 | -33.52316 | 25.94335 | 12864 ft | 382 kts | 160° |
| 2026-04-16 08:30 | -33.54779 | 25.95492 | 12276 ft | 378 kts | 160° |
| 2026-04-16 08:31 | -33.57232 | 25.96653 | 11716 ft | 379 kts | 160° |
| 2026-04-16 08:31 | -33.59683 | 25.97808 | 11157 ft | 378 kts | 160° |
| 2026-04-16 08:31 | -33.62173 | 25.98759 | 10604 ft | 374 kts | 174° |
| 2026-04-16 08:31 | -33.64781 | 25.98869 | 10065 ft | 369 kts | 184° |
| 2026-04-16 08:32 | -33.67339 | 25.98771 | 9478 ft | 367 kts | 185° |
| 2026-04-16 08:32 | -33.69888 | 25.98655 | 8896 ft | 366 kts | 185° |
| 2026-04-16 08:32 | -33.72361 | 25.98536 | 8317 ft | 354 kts | 185° |
| 2026-04-16 08:32 | -33.74820 | 25.98354 | 7743 ft | 344 kts | 191° |
| 2026-04-16 08:33 | -33.77079 | 25.97683 | 7254 ft | 326 kts | 204° |
| 2026-04-16 08:33 | -33.79066 | 25.96529 | 6802 ft | 310 kts | 216° |
| 2026-04-16 08:33 | -33.80740 | 25.95003 | 6356 ft | 296 kts | 227° |
| 2026-04-16 08:33 | -33.82067 | 25.93215 | 6033 ft | 278 kts | 238° |
| 2026-04-16 08:34 | -33.83092 | 25.91323 | 5718 ft | 264 kts | 242° |
| 2026-04-16 08:34 | -33.84053 | 25.89486 | 5372 ft | 255 kts | 241° |
| 2026-04-16 08:34 | -33.84980 | 25.87710 | 5070 ft | 249 kts | 241° |
| 2026-04-16 08:34 | -33.85900 | 25.85945 | 4753 ft | 249 kts | 240° |
| 2026-04-16 08:35 | -33.86816 | 25.84189 | 4400 ft | 245 kts | 240° |
| 2026-04-16 08:35 | -33.87709 | 25.82477 | 4080 ft | 239 kts | 240° |
| 2026-04-16 08:35 | -33.88578 | 25.80809 | 3779 ft | 231 kts | 240° |
| 2026-04-16 08:35 | -33.89418 | 25.79197 | 3481 ft | 224 kts | 239° |
| 2026-04-16 08:36 | -33.89959 | 25.78157 | 3289 ft | 218 kts | 238° |
| 2026-04-16 08:36 | -33.90753 | 25.76632 | 3007 ft | 213 kts | 239° |
| 2026-04-16 08:36 | -33.91522 | 25.75153 | 2745 ft | 202 kts | 239° |
| 2026-04-16 08:36 | -33.92262 | 25.73730 | 2465 ft | 197 kts | 239° |
| 2026-04-16 08:37 | -33.92987 | 25.72336 | 2194 ft | 193 kts | 238° |
| 2026-04-16 08:37 | -33.93674 | 25.71013 | 1949 ft | 182 kts | 238° |
| 2026-04-16 08:37 | -33.94338 | 25.69735 | 1709 ft | 178 kts | 237° |
| 2026-04-16 08:37 | -33.94976 | 25.68507 | 1480 ft | 166 kts | 238° |
| 2026-04-16 08:38 | -33.95568 | 25.67365 | 1265 ft | 157 kts | 238° |
| 2026-04-16 08:38 | -33.96139 | 25.66266 | 1064 ft | 153 kts | 238° |
| 2026-04-16 08:38 | -33.96700 | 25.65186 | 865 ft | 151 kts | 238° |
| 2026-04-16 08:38 | -33.97260 | 25.64108 | 663 ft | 151 kts | 238° |
| 2026-04-16 08:39 | -33.97823 | 25.63021 | 462 ft | 150 kts | 239° |
| 2026-04-16 08:39 | -33.98372 | 25.61960 | 283 ft | 149 kts | 239° |
| 2026-04-16 08:39 | -33.98866 | 25.60995 | 238 ft | 100 kts | 238° |
| 2026-04-16 08:39 | -33.99092 | 25.60557 | 233 ft | 42 kts | 238° |
| 2026-04-16 08:40 | -33.99245 | 25.60262 | 235 ft | 40 kts | 238° |
| 2026-04-16 08:40 | -33.99350 | 25.60059 | 235 ft | 17 kts | 238° |
| 2026-04-16 08:40 | -33.99315 | 25.59968 | 237 ft | 14 kts | 326° |
| 2026-04-16 08:40 | -33.99222 | 25.59932 | 234 ft | 15 kts | 21° |
| 2026-04-16 08:41 | -33.99160 | 25.60023 | 236 ft | 15 kts | 57° |
| 2026-04-16 08:41 | -33.99098 | 25.60136 | 235 ft | 17 kts | 56° |
| 2026-04-16 08:41 | -33.99026 | 25.60267 | 235 ft | 20 kts | 57° |
| 2026-04-16 08:41 | -33.98947 | 25.60409 | 234 ft | 21 kts | 56° |
| 2026-04-16 08:42 | -33.98868 | 25.60561 | 238 ft | 22 kts | 57° |
| 2026-04-16 08:42 | -33.98783 | 25.60717 | 235 ft | 22 kts | 56° |
| 2026-04-16 08:42 | -33.98703 | 25.60863 | 235 ft | 18 kts | 57° |
| 2026-04-16 08:42 | -33.98646 | 25.60971 | 235 ft | 15 kts | 58° |
| 2026-04-16 08:43 | -33.98597 | 25.61067 | 236 ft | 13 kts | 58° |
| 2026-04-16 08:43 | -33.98563 | 25.61135 | 237 ft | 10 kts | 58° |
| 2026-04-16 08:43 | -33.98532 | 25.61194 | 235 ft | 4 kts | 58° |
| 2026-04-16 08:43 | -33.98505 | 25.61211 | 235 ft | 6 kts | 346° |
| 2026-04-16 08:44 | -33.98477 | 25.61190 | 236 ft | 2 kts | 324° |
| 2026-04-16 08:44 | -33.98466 | 25.61182 | 235 ft | 1 kts | 328° |
| 2026-04-16 08:44 | -33.98466 | 25.61181 | 235 ft | 0 kts | 328° |